CYSF

Stony Rapids Airport

Airport
ICAO code
CYSF
IATA Code
YSF
Summary
ICAO Region
NAM
ICAO Territory
Location

Stony Rapids, Saskatchewan

Serving
Stony Rapids
Elevation
801 ft
Coordinates
59° 15' 4" N , 105° 50' 30" W
KCC
Airport CFIT
Altimeter Temperature Error Correction
Metar
Observation
CYSF 281203Z AUTO 07006KT 3SM -SN OVC028 M08/M10 A2995 RMK SLP165
Station
Stony Rapids Airport
Date/Time
2022-11-28 12:03:00
Wind direction
70°
Wind speed
06 kts
Lowest cloud amount
overcast
Temperature
-8°C
Dew point
-10°C
Humidity
85%
Weather condition
light snow

Airport serving Stony Rapids community in Saskatchewan, Canada. The airport is located on the southern outskirts of the town.

Climatology

Humid Continental climate (Köppen climate classification Dfc)

Runways

Designator Length Width Surface Rops
6/24 1539 30 TREATED GR Yes/Yes

Airport map

Aerial View

SKYbrary Partners:

Safety knowledge contributed by: